This is the latest recevied weather packets stored in our database for station/object EA1FBN. If no packets are shown the sender has not sent any weather packets the latest 1 day(s).
| Time | Temp. | Humidity | Pressure | Rain* | Wind** | Luminosity | Snow |
|---|---|---|---|---|---|---|---|
| 1778069705 | 13.89° C | 56% | 1015.6 hPa | 0 mm | - | - | - |
| 1778069105 | 13.33° C | 58% | 1015.8 hPa | 0 mm | - | - | - |
| 1778058006 | 8.33° C | 45% | 1016.8 hPa | 0.25 mm | - | - | - |
| 1778057106 | 7.78° C | 46% | 1016.7 hPa | 0 mm | - | - | - |
| 1778056806 | 7.22° C | 47% | 1016.7 hPa | 0 mm | - | - | - |
| 1778056506 | 6.67° C | 47% | 1016.6 hPa | 0 mm | - | - | - |
| 1778056206 | 6.67° C | 47% | 1016.6 hPa | 0 mm | - | - | - |
| 1778055906 | 6.67° C | 47% | 1016.6 hPa | 0 mm | - | - | - |
| 1778055606 | 6.11° C | 48% | 1016.6 hPa | 0 mm | - | - | - |
| 1778055306 | 6.11° C | 48% | 1016.7 hPa | 0 mm | - | - | - |
| 1778055006 | 5.56° C | 49% | 1016.7 hPa | 0 mm | - | - | - |
| 1778054706 | 5.56° C | 49% | 1016.7 hPa | 0 mm | - | - | - |
| 1778054406 | 5.56° C | 49% | 1016.7 hPa | 0 mm | - | - | - |
| 1778054106 | 5.56° C | 49% | 1016.7 hPa | 0 mm | - | - | - |
| 1778053806 | 5° C | 49% | 1016.7 hPa | 0 mm | - | - | - |
| 1778053506 | 5° C | 50% | 1016.7 hPa | 0 mm | - | - | - |
| 1778053206 | 5° C | 50% | 1016.7 hPa | 0 mm | - | - | - |
| 1778052606 | 4.44° C | 51% | 1016.7 hPa | 0 mm | - | - | - |
| 1778052306 | 4.44° C | 51% | 1016.7 hPa | 0 mm | - | - | - |
| 1778052006 | 3.89° C | 51% | 1016.8 hPa | 0 mm | - | - | - |
| 1778051706 | 3.89° C | 51% | 1016.7 hPa | 0 mm | - | - | - |
| 1778051406 | 3.89° C | 52% | 1016.6 hPa | 0 mm | - | - | - |
| 1778050506 | 3.33° C | 52% | 1016.6 hPa | 0 mm | - | - | - |
| 1778050206 | 3.33° C | 53% | 1016.6 hPa | 0 mm | - | - | - |
| 1778049906 | 2.78° C | 53% | 1016.6 hPa | 0 mm | - | - | - |
* Rain latest hour (hover to see other rain measurements)
** Current wind speed in m/s (hover to see current wind gust speed)